Сочи

СКИДКИ НА СМАРТФОНЫ!

Карта отелей и гостиниц, располагающихся рядом с аэропортом Сочи :

Сочи Краснодарский край 43° 26' 40.2" N, 39° 56' 55.7412" E
Код аэродрома ИКАО
URSS
Код аэродрома RU
УРСС
Координаты
N43.44450° E039.94882°
Превышение над уровнем моря
27
Основная полоса
06/24
Курс магнитный
058,1/238,1
Длина основной ВПП
2950
Ширина основной ВПП
45
Покрытие основной ВПП
Твёрдое (цементобетон)
Освещение ВПП
Постоянное
Тип: 
Аэродром
Класс аэродрома: 
Международный
Принадлежность: 
ГА
Статус: 
Действующий
Сайт: 
http://www.basel.aero/sochi/
E-mail аэродрома: 
dis_p@sochi.ru
Страна: 
Россия
Регион: 
Краснодарский край
Дополнительная информация: 
Горный. Оператор: ОАО «Междунаро?дный аэропо?рт Со?чи». Входит в аэропортовый холдинг "Базэл Аэро". Совместного базирования. Федерального значения. Нкр.=(600)м. Военный индекс: XRSS / ЬРСС.
Погода: 

Авиационная погода в Сочи

Регион: 
Погода METAR: 
URSS 250400Z 04004MPS 9999 SCT050CB 12/10 Q1022 WS ALL RWY R02/290060 R06/290060 NOSIG RMK R06/07004MPS QFE765
Время наблюдения
2022-09-25T04:00:00Z
Температура C
12.0
Точка росы
10.0
Направление ветра
40
Скорость ветра (узлы)
8
Метео видимость
6.21
Облачность
SCT
Нижняя граница облачности (футы)
5000
Явления погоды
Условия полета
VFR
Аэропорт подробнее: 
SCT – разбросанная отдельная облачность;

Скидки на навигаторы!

Найти трансфер

С помощью этой формы Вы можете найти трансфер из аэропорта Сочи в город, аэропорт или вокзал:

Погода в аэропортах:

Авиационная погода в Уральске

Регион: 
Погода METAR: 
UARR 250400Z 25002MPS 9999 -SHRA SCT038CB 11/10 Q1009 NOSIG RMK QFE753/1004
Время наблюдения
2022-09-25T04:00:00Z
Температура C
11.0
Точка росы
10.0
Направление ветра
250
Скорость ветра (узлы)
4
Метео видимость
6.21
Облачность
SCT
Нижняя граница облачности (футы)
3800
Явления погоды
-SHRA
Условия полета
VFR
Аэропорт подробнее: 
SCT – разбросанная отдельная облачность;
-SHRA - слабый ливневой дождь;

Авиационная погода в Самсуне

Регион: 
Погода METAR: 
LTFH 130050Z 17003KT 150V210 9999 -SHRA BKN028 BKN080 17/16 Q1008 NOSIG
Время наблюдения
2022-09-13T00:50:00Z
Температура C
17.0
Точка росы
16.0
Направление ветра
170
Скорость ветра (узлы)
3
Метео видимость
6.21
Облачность
BKN
BKN
Нижняя граница облачности (футы)
2800
8000
Явления погоды
-SHRA
Условия полета
MVFR
BKN – значительная (рассеянная, разорванная) облачность;
-SHRA - слабый ливневой дождь;

Авиационная погода в Москва - Домодедово

Погода METAR: 
UUDD 250400Z 14005MPS 5000 -RA BR OVC003 06/05 Q0997 R14R/290042 NOSIG
Время наблюдения
2022-09-25T04:00:00Z
Температура C
6.0
Точка росы
5.0
Направление ветра
140
Скорость ветра (узлы)
10
Метео видимость
3.11
Облачность
OVC
Нижняя граница облачности (футы)
300
Явления погоды
-RA BR
Условия полета
LIFR
Аэропорт подробнее: 
OVC – сплошная облачность;
-RA - слабый дождь; BR – дымка (видимость от 1 до 9 км);

Авиационная погода в аэропорту Бесовец

Регион: 
Погода METAR: 
ULPB 250400Z AUTO 04003MPS 010V070 9999 -DZ 06/05 Q1008 RMK QBB330 QFE752/1003
Время наблюдения
2022-09-25T04:00:00Z
Температура C
6.0
Точка росы
5.0
Направление ветра
40
Скорость ветра (узлы)
6
Метео видимость
6.21
Облачность
Нижняя граница облачности (футы)
Явления погоды
-DZ
Условия полета
Аэропорт подробнее: 
-DZ – слабая морось;